Presque Isle, ME (04769)

8:22 PM EST on February 08, 2016 (GMT -0500)
APRSWXNET | | Change Station
CLOSE
Current Station
Personal Weather Station
Location: Presque Isle, ME
Elevation: 649 ft
Nearby Weather Stations
Active Advisory: Winter Weather Advisory

Elev 649 ft 46.69 °N, 67.99 °W | Updated 34 minutes ago

Clear
Clear
14 °F
Feels Like 7 °F
N
4
Wind Variable Wind from North
Gusts 14.0 mph

Today
High -- | Low -- °F
--% Chance of Precip.
Yesterday
High -- | Low -- °F
Precip. -- in
Pressure 30.02 in
Visibility 10.0 miles
Clouds Clear
Windchill 7 °F
Dew Point 4 °F
Humidity 63%
Rainfall in
Snow Depth Not available.
6:47 AM 4:45 PM
New Moon, 0% visible
METAR KPQI 090056Z AUTO 02014KT 10SM CLR M09/M14 A2988 RMK AO2 SLP165 T10891144 FZRANO
Pressure 30.02 in
Visibility 10.0 miles
Clouds Clear
Windchill 7 °F
Dew Point 4 °F
Humidity 63%
Rainfall in
Snow Depth Not available.
6:47 AM 4:45 PM
New Moon, 0% visible
METAR KPQI 090056Z AUTO 02014KT 10SM CLR M09/M14 A2988 RMK AO2 SLP165 T10891144 FZRANO

10-Day Weather Forecast

Almanac

Astronomy

Feb. 08, 2016 Rise Set
Actual Time
Civil Twilight
Nautical Twilight
Astronomical Twilight
Moon
Length of Visible Light
Length of Day
Tomorrow will be .
, % of the Moon is Illuminated

Today's Extremes

State Highs State Lows

Community

WunderPhotos

Upload Photos

1,891,527 photos uploaded!

WunderBlog® & News

Nearby

Air Quality

  Air Quality AQ Index Pollutant
Not available.

Snow Depth

Station Depth Elevation

Earthquake Activity

City Distance Mag. Time & Date
Minimum magnitude displayed is 2.5.

Coastal Water Temperatures

Place Temperature

Stations

Nearby Weather Stations

Station Location Temp. Windchill Dew Point Humidity Wind Precip. Elev Updated Type
                   

Watches & Warnings

Winter Weather Advisory
Issued: 7:03 PM EST Feb. 8, 2016 – National Weather Service

... Winter Weather Advisory remains in effect until 7 PM EST
Tuesday...

* locations... North Woods... Central Highlands... and central and
southern Aroostook County.

* Snow accumulations... 4 to 6 inches.

* Timing... snow will develop from south to north across the region
this evening... and will reach the Saint John valley after
midnight. Snow will taper to snow showers from south to north
Tuesday afternoon into early evening.

* Impacts... roads will become snow covered and slippery tonight
and Tuesday.

* Winds... north 5 to 15 mph with gusts up to 25 mph.

Precautionary/preparedness actions...

A Winter Weather Advisory for snow means that periods of snow
will cause primarily travel difficulties. Be prepared for snow
covered roads and limited visibilities... and use caution while
driving.